createdAt,value
2023-01-01T00:00:14.161Z,1006.51
2023-01-01T00:01:14.111Z,1006.50
2023-01-01T00:02:14.119Z,1006.49
2023-01-01T00:03:14.072Z,1006.53
2023-01-01T00:04:14.184Z,1006.52
2023-01-01T00:05:14.072Z,1006.48
2023-01-01T00:06:14.102Z,1006.51
2023-01-01T00:07:14.065Z,1006.59
2023-01-01T00:08:14.025Z,1006.55
2023-01-01T00:09:14.060Z,1006.56
2023-01-01T00:10:14.001Z,1006.63
2023-01-01T00:11:13.984Z,1006.61
2023-01-01T00:12:13.994Z,1006.61
2023-01-01T00:13:13.986Z,1006.61
2023-01-01T00:14:14.024Z,1006.59
2023-01-01T00:15:13.954Z,1006.70
2023-01-01T00:16:13.968Z,1006.65
2023-01-01T00:17:13.933Z,1006.68
2023-01-01T00:18:13.948Z,1006.73
2023-01-01T00:19:13.970Z,1006.63
2023-01-01T00:20:13.876Z,1006.66
2023-01-01T00:21:13.895Z,1006.73
2023-01-01T00:22:52.710Z,1006.66
2023-01-01T00:23:14.857Z,1006.75
2023-01-01T00:24:13.891Z,1006.72
2023-01-01T00:25:13.844Z,1006.74
2023-01-01T00:26:13.816Z,1006.77
2023-01-01T00:27:13.849Z,1006.72
2023-01-01T00:28:13.790Z,1006.74
2023-01-01T00:29:13.822Z,1006.78
2023-01-01T00:30:13.797Z,1006.77
2023-01-01T00:31:13.800Z,1006.82
2023-01-01T00:32:17.705Z,1006.82
2023-01-01T00:33:14.752Z,1006.70
2023-01-01T00:34:13.787Z,1006.77
2023-01-01T00:35:13.751Z,1006.82
2023-01-01T00:36:13.743Z,1006.89
2023-01-01T00:37:13.723Z,1006.91
2023-01-01T00:38:13.680Z,1006.94
2023-01-01T00:39:13.698Z,1006.90
2023-01-01T00:40:13.660Z,1006.85
2023-01-01T00:41:13.645Z,1006.95
2023-01-01T00:42:13.651Z,1006.88
2023-01-01T00:43:13.618Z,1006.94
2023-01-01T00:44:13.665Z,1006.90
2023-01-01T00:45:20.560Z,1006.88
2023-01-01T00:46:14.679Z,1006.89
2023-01-01T00:47:13.598Z,1006.77
2023-01-01T00:48:13.596Z,1006.81
2023-01-01T00:49:13.634Z,1006.96
2023-01-01T00:50:13.544Z,1006.91
2023-01-01T00:51:13.545Z,1006.89
2023-01-01T00:52:13.550Z,1006.94
2023-01-01T00:53:13.523Z,1006.84
2023-01-01T00:54:13.552Z,1006.86
2023-01-01T00:55:13.517Z,1006.93
2023-01-01T00:56:13.484Z,1006.96
2023-01-01T00:57:13.517Z,1006.89
2023-01-01T00:58:13.467Z,1006.89
2023-01-01T00:59:13.484Z,1006.88
2023-01-01T01:00:13.447Z,1006.84
2023-01-01T01:01:13.526Z,1007.03
2023-01-01T01:02:13.564Z,1006.89
2023-01-01T01:03:13.469Z,1006.76
2023-01-01T01:04:13.464Z,1006.88
2023-01-01T01:05:13.388Z,1006.90
2023-01-01T01:06:13.359Z,1006.90
2023-01-01T01:07:13.346Z,1006.88
2023-01-01T01:08:13.331Z,1006.88
2023-01-01T01:09:13.352Z,1006.87
2023-01-01T01:10:13.345Z,1007.02
2023-01-01T01:11:13.343Z,1007.01
2023-01-01T01:12:17.737Z,1006.98
2023-01-01T01:13:14.300Z,1006.88
2023-01-01T01:14:13.338Z,1007.01
2023-01-01T01:15:13.273Z,1006.95
2023-01-01T01:16:13.337Z,1006.97
2023-01-01T01:17:13.248Z,1007.06
2023-01-01T01:18:13.253Z,1007.02
2023-01-01T01:19:13.262Z,1006.98
2023-01-01T01:20:13.204Z,1007.06
2023-01-01T01:21:13.227Z,1007.03
2023-01-01T01:22:13.225Z,1007.07
2023-01-01T01:23:13.199Z,1007.06
2023-01-01T01:24:13.214Z,1007.10
2023-01-01T01:25:13.167Z,1007.12
2023-01-01T01:26:13.163Z,1007.18
2023-01-01T01:27:13.153Z,1007.06
2023-01-01T01:28:13.120Z,1007.00
2023-01-01T01:29:13.151Z,1007.06
2023-01-01T01:30:13.112Z,1007.15
2023-01-01T01:31:13.117Z,1007.11
2023-01-01T01:32:13.087Z,1007.18
2023-01-01T01:33:13.085Z,1007.15
2023-01-01T01:34:16.146Z,1007.14
2023-01-01T01:35:13.050Z,1007.14
2023-01-01T01:36:13.021Z,1007.13
2023-01-01T01:37:13.009Z,1007.12
2023-01-01T01:38:13.005Z,1007.16
2023-01-01T01:39:13.017Z,1007.14
2023-01-01T01:40:13.004Z,1007.20
2023-01-01T01:41:26.144Z,1007.16
2023-01-01T01:42:13.969Z,1007.16
2023-01-01T01:43:12.931Z,1007.22
2023-01-01T01:44:12.947Z,1007.18
2023-01-01T01:45:12.969Z,1007.10
2023-01-01T01:46:12.954Z,1007.21
2023-01-01T01:47:12.897Z,1007.28
2023-01-01T01:48:12.875Z,1007.26
2023-01-01T01:49:12.880Z,1007.22
2023-01-01T01:50:12.881Z,1007.34
2023-01-01T01:51:12.860Z,1007.28
2023-01-01T01:52:12.838Z,1007.24
2023-01-01T01:53:12.830Z,1007.35
2023-01-01T01:54:12.804Z,1007.37
2023-01-01T01:55:12.846Z,1007.38
2023-01-01T01:56:12.812Z,1007.43
2023-01-01T01:57:12.789Z,1007.36
2023-01-01T01:58:12.777Z,1007.36
2023-01-01T01:59:12.762Z,1007.42
2023-01-01T02:00:12.781Z,1007.49
2023-01-01T02:01:12.870Z,1007.39
2023-01-01T02:02:12.797Z,1007.42
2023-01-01T02:03:12.786Z,1007.50
2023-01-01T02:04:12.732Z,1007.50
2023-01-01T02:05:12.713Z,1007.54
2023-01-01T02:06:12.698Z,1007.45
2023-01-01T02:07:12.668Z,1007.49
2023-01-01T02:08:12.641Z,1007.49
2023-01-01T02:09:12.624Z,1007.48
2023-01-01T02:10:12.686Z,1007.50
2023-01-01T02:11:16.096Z,1007.45
2023-01-01T02:12:13.600Z,1007.52
2023-01-01T02:13:12.613Z,1007.50
2023-01-01T02:14:12.580Z,1007.52
2023-01-01T02:15:12.608Z,1007.58
2023-01-01T02:16:12.602Z,1007.47
2023-01-01T02:17:12.544Z,1007.58
2023-01-01T02:18:12.522Z,1007.52
2023-01-01T02:19:12.519Z,1007.47
2023-01-01T02:20:12.548Z,1007.52
2023-01-01T02:21:12.514Z,1007.52
2023-01-01T02:22:12.516Z,1007.49
2023-01-01T02:23:12.503Z,1007.54
2023-01-01T02:24:12.472Z,1007.52
2023-01-01T02:25:12.509Z,1007.53
2023-01-01T02:26:12.461Z,1007.58
2023-01-01T02:27:12.437Z,1007.57
2023-01-01T02:28:12.440Z,1007.61
2023-01-01T02:29:12.419Z,1007.60
2023-01-01T02:30:12.459Z,1007.53
2023-01-01T02:31:12.441Z,1007.54
2023-01-01T02:32:12.387Z,1007.51
2023-01-01T02:33:12.366Z,1007.50
2023-01-01T02:34:12.375Z,1007.43
2023-01-01T02:35:12.384Z,1007.44
2023-01-01T02:36:12.332Z,1007.46
2023-01-01T02:37:12.312Z,1007.43
2023-01-01T02:38:12.315Z,1007.48
2023-01-01T02:39:12.275Z,1007.49
2023-01-01T02:40:12.346Z,1007.51
2023-01-01T02:41:12.299Z,1007.52
2023-01-01T02:42:12.268Z,1007.50
2023-01-01T02:43:12.248Z,1007.51
2023-01-01T02:44:12.291Z,1007.50
2023-01-01T02:45:12.280Z,1007.51
2023-01-01T02:46:12.260Z,1007.48
2023-01-01T02:47:12.232Z,1007.47
2023-01-01T02:48:12.220Z,1007.48
2023-01-01T02:49:12.218Z,1007.43
2023-01-01T02:50:12.219Z,1007.48
2023-01-01T02:51:12.213Z,1007.53
2023-01-01T02:52:12.182Z,1007.48
2023-01-01T02:53:12.148Z,1007.47
2023-01-01T02:54:12.161Z,1007.53
2023-01-01T02:55:12.189Z,1007.40
2023-01-01T02:56:12.109Z,1007.51
2023-01-01T02:57:12.124Z,1007.55
2023-01-01T02:58:12.115Z,1007.52
2023-01-01T02:59:12.085Z,1007.44
2023-01-01T03:00:12.109Z,1007.47
2023-01-01T03:01:12.192Z,1007.42
2023-01-01T03:02:12.149Z,1007.47
2023-01-01T03:03:12.155Z,1007.46
2023-01-01T03:04:12.047Z,1007.50
2023-01-01T03:05:12.070Z,1007.59
2023-01-01T03:06:12.002Z,1007.62
2023-01-01T03:07:11.984Z,1007.64
2023-01-01T03:08:11.981Z,1007.64
2023-01-01T03:09:11.990Z,1007.66
2023-01-01T03:10:12.000Z,1007.62
2023-01-01T03:11:11.972Z,1007.68
2023-01-01T03:12:11.928Z,1007.52
2023-01-01T03:13:11.948Z,1007.43
2023-01-01T03:14:11.921Z,1007.41
2023-01-01T03:15:11.924Z,1007.44
2023-01-01T03:16:11.976Z,1007.43
2023-01-01T03:17:11.899Z,1007.48
2023-01-01T03:18:11.868Z,1007.50
2023-01-01T03:19:11.884Z,1007.53
2023-01-01T03:20:11.843Z,1007.54
2023-01-01T03:21:45.667Z,1007.52
2023-01-01T03:23:15.240Z,1007.53
2023-01-01T03:24:15.230Z,1007.56
2023-01-01T03:25:15.223Z,1007.52
2023-01-01T03:26:15.213Z,1007.56
2023-01-01T03:27:15.187Z,1007.52
2023-01-01T03:28:15.192Z,1007.57
2023-01-01T03:29:15.171Z,1007.52
2023-01-01T03:30:15.167Z,1007.56
2023-01-01T03:31:15.211Z,1007.63
2023-01-01T03:32:15.128Z,1007.53
2023-01-01T03:33:15.126Z,1007.51
2023-01-01T03:34:15.103Z,1007.60
2023-01-01T03:35:15.098Z,1007.49
2023-01-01T03:36:15.134Z,1007.53
2023-01-01T03:37:15.064Z,1007.58
2023-01-01T03:38:15.076Z,1007.54
2023-01-01T03:39:15.079Z,1007.53
2023-01-01T03:40:15.052Z,1007.53
2023-01-01T03:41:15.069Z,1007.50
2023-01-01T03:42:15.034Z,1007.57
2023-01-01T03:43:15.012Z,1007.57
2023-01-01T03:44:14.996Z,1007.57
2023-01-01T03:45:14.984Z,1007.54
2023-01-01T03:46:15.048Z,1007.55
2023-01-01T03:47:14.971Z,1007.59
2023-01-01T03:48:14.969Z,1007.53
2023-01-01T03:49:14.953Z,1007.56
2023-01-01T03:50:14.965Z,1007.57
2023-01-01T03:51:14.984Z,1007.61
2023-01-01T03:52:14.926Z,1007.60
2023-01-01T03:53:14.919Z,1007.56
2023-01-01T03:54:14.885Z,1007.60
2023-01-01T03:55:14.892Z,1007.61
2023-01-01T03:56:14.902Z,1007.58
2023-01-01T03:57:14.864Z,1007.59
2023-01-01T03:58:14.879Z,1007.55
2023-01-01T03:59:14.823Z,1007.62
2023-01-01T04:00:14.849Z,1007.56
2023-01-01T04:01:14.875Z,1007.58
2023-01-01T04:02:14.799Z,1007.58
2023-01-01T04:03:14.823Z,1007.59
2023-01-01T04:04:14.777Z,1007.66
2023-01-01T04:05:14.767Z,1007.67
2023-01-01T04:06:14.787Z,1007.67
2023-01-01T04:07:15.671Z,1007.65
2023-01-01T04:08:14.735Z,1007.67
2023-01-01T04:09:14.716Z,1007.66
2023-01-01T04:10:14.715Z,1007.66
2023-01-01T04:11:14.724Z,1007.72
2023-01-01T04:12:14.692Z,1007.62
2023-01-01T04:13:14.651Z,1007.72
2023-01-01T04:14:14.669Z,1007.75
2023-01-01T04:15:14.626Z,1007.71
2023-01-01T04:16:14.747Z,1007.72
2023-01-01T04:17:14.637Z,1007.73
2023-01-01T04:18:14.623Z,1007.72
2023-01-01T04:19:14.603Z,1007.73
2023-01-01T04:20:14.594Z,1007.77
2023-01-01T04:21:14.618Z,1007.74
2023-01-01T04:22:14.564Z,1007.74
2023-01-01T04:23:14.554Z,1007.77
2023-01-01T04:24:14.549Z,1007.75
2023-01-01T04:25:14.527Z,1007.70
2023-01-01T04:26:14.564Z,1007.72
2023-01-01T04:27:14.501Z,1007.74
2023-01-01T04:28:14.483Z,1007.74
2023-01-01T04:29:14.482Z,1007.77
2023-01-01T04:30:14.483Z,1007.81
2023-01-01T04:31:14.487Z,1007.77
2023-01-01T04:32:14.447Z,1007.80
2023-01-01T04:33:14.424Z,1007.84
2023-01-01T04:34:14.424Z,1007.79
2023-01-01T04:35:14.421Z,1007.78
2023-01-01T04:36:14.455Z,1007.76
2023-01-01T04:37:14.428Z,1007.76
2023-01-01T04:38:14.390Z,1007.80
2023-01-01T04:39:14.383Z,1007.77
2023-01-01T04:40:14.355Z,1007.78
2023-01-01T04:41:14.381Z,1007.84
2023-01-01T04:42:14.328Z,1007.80
2023-01-01T04:43:14.306Z,1007.80
2023-01-01T04:44:14.310Z,1007.84
2023-01-01T04:45:14.291Z,1007.80
2023-01-01T04:46:14.353Z,1007.79
2023-01-01T04:47:14.278Z,1007.75
2023-01-01T04:48:14.267Z,1007.75
2023-01-01T04:49:14.259Z,1007.77
2023-01-01T04:50:14.248Z,1007.74
2023-01-01T04:51:14.259Z,1007.73
2023-01-01T04:52:14.220Z,1007.79
2023-01-01T04:53:14.212Z,1007.79
2023-01-01T04:54:14.201Z,1007.81
2023-01-01T04:55:14.182Z,1007.83
2023-01-01T04:56:14.191Z,1007.83
2023-01-01T04:57:14.155Z,1007.86
2023-01-01T04:58:14.164Z,1007.84
2023-01-01T04:59:14.158Z,1007.86
2023-01-01T05:00:14.107Z,1007.89
2023-01-01T05:01:14.285Z,1007.91
2023-01-01T05:02:14.203Z,1007.90
2023-01-01T05:03:14.108Z,1007.93
2023-01-01T05:04:14.071Z,1007.84
2023-01-01T05:05:14.092Z,1007.94
2023-01-01T05:06:14.109Z,1007.95
2023-01-01T05:07:14.046Z,1007.96
2023-01-01T05:08:14.044Z,1008.00
2023-01-01T05:09:14.000Z,1007.97
2023-01-01T05:10:14.006Z,1007.98
2023-01-01T05:11:14.040Z,1007.97
2023-01-01T05:12:13.999Z,1008.01
2023-01-01T05:13:13.973Z,1008.01
2023-01-01T05:14:13.960Z,1008.02
2023-01-01T05:15:13.926Z,1008.02
2023-01-01T05:16:13.993Z,1007.95
2023-01-01T05:17:13.920Z,1007.97
2023-01-01T05:18:13.909Z,1007.97
2023-01-01T05:19:13.900Z,1008.03
2023-01-01T05:20:13.902Z,1008.04
2023-01-01T05:21:13.932Z,1008.05
2023-01-01T05:22:13.891Z,1008.00
2023-01-01T05:23:13.860Z,1007.98
2023-01-01T05:24:13.872Z,1007.96
2023-01-01T05:25:13.840Z,1007.95
2023-01-01T05:26:13.867Z,1007.98
2023-01-01T05:27:13.797Z,1007.98
2023-01-01T05:28:13.796Z,1007.96
2023-01-01T05:29:17.056Z,1008.01
2023-01-01T05:30:13.774Z,1007.95
2023-01-01T05:31:13.830Z,1008.01
2023-01-01T05:32:43.397Z,1007.96
2023-01-01T05:33:43.376Z,1007.96
2023-01-01T05:34:43.372Z,1008.02
2023-01-01T05:35:43.348Z,1007.99
2023-01-01T05:36:43.403Z,1007.97
2023-01-01T05:37:43.319Z,1007.97
2023-01-01T05:38:43.307Z,1007.96
2023-01-01T05:39:43.320Z,1007.93
2023-01-01T05:40:43.291Z,1008.02
2023-01-01T05:41:43.337Z,1007.97
2023-01-01T05:42:43.271Z,1007.97
2023-01-01T05:43:43.263Z,1007.99
2023-01-01T05:44:43.241Z,1008.01
2023-01-01T05:45:43.247Z,1008.08
2023-01-01T05:46:43.251Z,1008.07
2023-01-01T05:47:43.216Z,1008.08
2023-01-01T05:48:43.230Z,1008.12
2023-01-01T05:49:43.188Z,1008.33
2023-01-01T05:50:43.196Z,1008.27
2023-01-01T05:52:12.754Z,1008.42
2023-01-01T05:53:12.762Z,1008.42
2023-01-01T05:54:42.311Z,1008.38
2023-01-01T05:55:42.307Z,1008.42
2023-01-01T05:56:42.336Z,1008.47
2023-01-01T05:57:42.276Z,1008.43
2023-01-01T05:58:42.252Z,1008.48
2023-01-01T05:59:42.243Z,1008.48
2023-01-01T06:00:42.251Z,1008.41
2023-01-01T06:01:45.884Z,1008.40
2023-01-01T06:02:42.284Z,1008.45
2023-01-01T06:03:42.204Z,1008.44
2023-01-01T06:04:42.235Z,1008.42
2023-01-01T06:05:42.186Z,1008.36
2023-01-01T06:06:42.221Z,1008.43
2023-01-01T06:07:48.210Z,1008.49
2023-01-01T06:08:43.144Z,1008.45
2023-01-01T06:09:42.133Z,1008.44
2023-01-01T06:10:42.136Z,1008.48
2023-01-01T06:11:42.125Z,1008.46
2023-01-01T06:12:42.094Z,1008.52
2023-01-01T06:13:42.058Z,1008.56
2023-01-01T06:14:42.066Z,1008.53
2023-01-01T06:15:42.056Z,1008.52
2023-01-01T06:16:42.144Z,1008.52
2023-01-01T06:17:42.066Z,1008.57
2023-01-01T06:18:42.048Z,1008.58
2023-01-01T06:19:42.018Z,1008.53
2023-01-01T06:20:41.989Z,1008.54
2023-01-01T06:21:42.011Z,1008.53
2023-01-01T06:22:41.973Z,1008.41
2023-01-01T06:23:41.984Z,1008.50
2023-01-01T06:24:41.933Z,1008.51
2023-01-01T06:25:41.957Z,1008.49
2023-01-01T06:26:41.979Z,1008.54
2023-01-01T06:27:41.905Z,1008.50
2023-01-01T06:28:41.930Z,1008.54
2023-01-01T06:29:41.897Z,1008.48
2023-01-01T06:30:41.975Z,1008.50
2023-01-01T06:31:41.941Z,1008.51
2023-01-01T06:32:41.885Z,1008.48
2023-01-01T06:33:41.859Z,1008.55
2023-01-01T06:34:41.870Z,1008.48
2023-01-01T06:35:41.837Z,1008.52
2023-01-01T06:36:41.809Z,1008.51
2023-01-01T06:37:41.845Z,1008.53
2023-01-01T06:38:41.812Z,1008.54
2023-01-01T06:39:41.798Z,1008.55
2023-01-01T06:40:41.785Z,1008.60
2023-01-01T06:41:41.769Z,1008.63
2023-01-01T06:42:41.763Z,1008.59
2023-01-01T06:43:41.764Z,1008.55
2023-01-01T06:44:41.729Z,1008.57
2023-01-01T06:45:41.711Z,1008.62
2023-01-01T06:46:41.747Z,1008.54
2023-01-01T06:47:41.743Z,1008.63
2023-01-01T06:48:41.702Z,1008.62
2023-01-01T06:49:41.675Z,1008.54
2023-01-01T06:50:41.699Z,1008.56
2023-01-01T06:51:41.695Z,1008.65
2023-01-01T06:52:41.686Z,1008.67
2023-01-01T06:53:41.644Z,1008.62
2023-01-01T06:54:41.615Z,1008.64
2023-01-01T06:55:41.612Z,1008.72
2023-01-01T06:56:41.602Z,1008.76
2023-01-01T06:57:41.616Z,1008.73
2023-01-01T06:58:41.609Z,1008.72
2023-01-01T06:59:41.570Z,1008.70
2023-01-01T07:00:41.566Z,1008.79
2023-01-01T07:01:44.609Z,1008.83
2023-01-01T07:02:41.725Z,1008.68
2023-01-01T07:03:41.598Z,1008.72
2023-01-01T07:04:41.510Z,1008.77
2023-01-01T07:05:41.505Z,1008.79
2023-01-01T07:06:41.489Z,1008.80
2023-01-01T07:07:41.517Z,1008.87
2023-01-01T07:08:41.467Z,1008.77
2023-01-01T07:09:41.452Z,1008.88
2023-01-01T07:10:41.423Z,1008.88
2023-01-01T07:11:41.459Z,1008.88
2023-01-01T07:12:41.449Z,1008.94
2023-01-01T07:13:41.397Z,1008.92
2023-01-01T07:14:41.393Z,1008.90
2023-01-01T07:15:41.412Z,1008.96
2023-01-01T07:16:41.464Z,1008.96
2023-01-01T07:17:41.406Z,1009.00
2023-01-01T07:18:41.370Z,1008.90
2023-01-01T07:19:41.338Z,1008.97
2023-01-01T07:20:41.319Z,1009.02
2023-01-01T07:21:41.312Z,1009.08
2023-01-01T07:22:41.352Z,1009.08
2023-01-01T07:23:41.316Z,1009.05
2023-01-01T07:24:41.275Z,1009.17
2023-01-01T07:25:41.279Z,1009.14
2023-01-01T07:26:41.277Z,1009.18
2023-01-01T07:27:41.281Z,1009.15
2023-01-01T07:28:41.236Z,1009.22
2023-01-01T07:29:41.209Z,1009.17
2023-01-01T07:30:41.326Z,1009.17
2023-01-01T07:31:41.317Z,1009.23
2023-01-01T07:32:41.213Z,1009.26
2023-01-01T07:33:41.173Z,1009.21
2023-01-01T07:34:43.871Z,1009.14
2023-01-01T07:35:42.156Z,1009.17
2023-01-01T07:36:41.138Z,1009.17
2023-01-01T07:37:41.151Z,1009.28
2023-01-01T07:38:41.111Z,1009.22
2023-01-01T07:39:41.100Z,1009.30
2023-01-01T07:40:41.061Z,1009.29
2023-01-01T07:41:41.061Z,1009.32
2023-01-01T07:42:41.109Z,1009.29
2023-01-01T07:43:41.041Z,1009.25
2023-01-01T07:44:41.047Z,1009.29
2023-01-01T07:45:41.044Z,1009.32
2023-01-01T07:46:41.046Z,1009.31
2023-01-01T07:47:41.052Z,1009.33
2023-01-01T07:48:41.005Z,1009.34
2023-01-01T07:49:41.013Z,1009.33
2023-01-01T07:50:40.975Z,1009.29
2023-01-01T07:51:40.966Z,1009.41
2023-01-01T07:52:40.983Z,1009.39
2023-01-01T07:53:40.963Z,1009.35
2023-01-01T07:54:40.933Z,1009.36
2023-01-01T07:55:40.903Z,1009.34
2023-01-01T07:56:40.922Z,1009.41
2023-01-01T07:57:40.954Z,1009.38
2023-01-01T07:58:40.904Z,1009.38
2023-01-01T07:59:40.872Z,1009.48
2023-01-01T08:00:40.878Z,1009.40
2023-01-01T08:01:40.914Z,1009.50
2023-01-01T08:02:40.928Z,1009.53
2023-01-01T08:03:40.896Z,1009.48
2023-01-01T08:04:40.816Z,1009.46
2023-01-01T08:05:40.811Z,1009.49
2023-01-01T08:06:40.787Z,1009.52
2023-01-01T08:07:40.799Z,1009.52
2023-01-01T08:08:40.808Z,1009.48
2023-01-01T08:09:40.782Z,1009.51
2023-01-01T08:10:40.747Z,1009.53
2023-01-01T08:11:40.725Z,1009.57
2023-01-01T08:12:40.711Z,1009.56
2023-01-01T08:13:40.776Z,1009.62
2023-01-01T08:14:40.693Z,1009.58
2023-01-01T08:15:40.749Z,1009.56
2023-01-01T08:16:40.695Z,1009.65
2023-01-01T08:17:46.151Z,1009.67
2023-01-01T08:18:41.705Z,1009.63
2023-01-01T08:19:40.649Z,1009.63
2023-01-01T08:20:40.656Z,1009.50
2023-01-01T08:21:40.622Z,1009.69
2023-01-01T08:22:40.631Z,1009.70
2023-01-01T08:23:40.674Z,1009.72
2023-01-01T08:24:40.593Z,1009.65
2023-01-01T08:25:40.615Z,1009.67
2023-01-01T08:26:40.591Z,1009.69
2023-01-01T08:27:40.561Z,1009.74
2023-01-01T08:28:40.600Z,1009.62
2023-01-01T08:29:40.588Z,1009.64
2023-01-01T08:30:40.528Z,1009.59
2023-01-01T08:31:40.566Z,1009.63
2023-01-01T08:32:40.513Z,1009.66
2023-01-01T08:33:40.550Z,1009.62
2023-01-01T08:34:40.488Z,1009.67
2023-01-01T08:35:40.482Z,1009.66
2023-01-01T08:36:40.473Z,1009.68
2023-01-01T08:37:40.441Z,1009.60
2023-01-01T08:38:40.472Z,1009.70
2023-01-01T08:39:40.455Z,1009.68
2023-01-01T08:40:40.402Z,1009.65
2023-01-01T08:41:40.411Z,1009.65
2023-01-01T08:42:40.395Z,1009.72
2023-01-01T08:43:40.416Z,1009.77
2023-01-01T08:44:40.361Z,1009.73
2023-01-01T08:45:40.367Z,1009.75
2023-01-01T08:46:40.408Z,1009.78
2023-01-01T08:47:40.329Z,1009.80
2023-01-01T08:48:40.357Z,1009.83
2023-01-01T08:49:40.312Z,1009.90
2023-01-01T08:50:40.315Z,1009.83
2023-01-01T08:51:40.299Z,1009.81
2023-01-01T08:52:40.313Z,1009.77
2023-01-01T08:53:43.029Z,1009.84
2023-01-01T08:54:41.252Z,1009.84
2023-01-01T08:55:40.283Z,1009.88
2023-01-01T08:56:40.239Z,1009.91
2023-01-01T08:57:40.211Z,1009.94
2023-01-01T08:58:40.272Z,1009.89
2023-01-01T08:59:40.200Z,1009.93
2023-01-01T09:00:40.199Z,1009.94
2023-01-01T09:01:40.414Z,1009.97
2023-01-01T09:02:40.282Z,1009.95
2023-01-01T09:03:40.260Z,1009.98
2023-01-01T09:04:40.138Z,1009.98
2023-01-01T09:05:40.149Z,1010.07
2023-01-01T09:06:40.123Z,1009.98
2023-01-01T09:07:40.128Z,1009.94
2023-01-01T09:08:40.144Z,1010.03
2023-01-01T09:09:40.116Z,1009.98
2023-01-01T09:10:40.075Z,1009.97
2023-01-01T09:11:40.056Z,1010.04
2023-01-01T09:12:40.046Z,1010.02
2023-01-01T09:13:40.071Z,1010.11
2023-01-01T09:14:40.011Z,1010.08
2023-01-01T09:15:40.044Z,1010.11
2023-01-01T09:16:44.023Z,1010.15
2023-01-01T09:17:40.029Z,1010.11
2023-01-01T09:18:40.024Z,1010.06
2023-01-01T09:19:39.999Z,1010.10
2023-01-01T09:20:39.950Z,1010.21
2023-01-01T09:21:39.973Z,1010.10
2023-01-01T09:22:39.937Z,1010.20
2023-01-01T09:23:39.982Z,1010.24
2023-01-01T09:24:39.934Z,1010.24
2023-01-01T09:25:39.932Z,1010.30
2023-01-01T09:26:39.909Z,1010.33
2023-01-01T09:27:39.889Z,1010.38
2023-01-01T09:28:39.915Z,1010.38
2023-01-01T09:29:39.868Z,1010.29
2023-01-01T09:30:39.868Z,1010.22
2023-01-01T09:31:39.900Z,1010.28
2023-01-01T09:32:39.846Z,1010.31
2023-01-01T09:33:39.880Z,1010.36
2023-01-01T09:34:39.797Z,1010.33
2023-01-01T09:35:39.800Z,1010.35
2023-01-01T09:36:39.788Z,1010.40
2023-01-01T09:37:39.785Z,1010.43
2023-01-01T09:38:39.795Z,1010.43
2023-01-01T09:39:39.768Z,1010.41
2023-01-01T09:40:39.744Z,1010.41
2023-01-01T09:41:39.725Z,1010.42
2023-01-01T09:42:39.730Z,1010.39
2023-01-01T09:43:39.687Z,1010.36
2023-01-01T09:44:39.730Z,1010.34
2023-01-01T09:45:39.756Z,1010.34
2023-01-01T09:46:39.670Z,1010.41
2023-01-01T09:47:39.686Z,1010.41
2023-01-01T09:48:39.667Z,1010.45
2023-01-01T09:49:39.695Z,1010.41
2023-01-01T09:50:39.648Z,1010.48
2023-01-01T09:51:47.610Z,1010.33
2023-01-01T09:52:40.610Z,1010.44
2023-01-01T09:53:39.598Z,1010.46
2023-01-01T09:54:39.633Z,1010.34
2023-01-01T09:55:39.590Z,1010.34
2023-01-01T09:56:39.577Z,1010.41
2023-01-01T09:57:39.573Z,1010.44
2023-01-01T09:58:39.550Z,1010.41
2023-01-01T09:59:39.592Z,1010.49
2023-01-01T10:00:39.558Z,1010.56
2023-01-01T10:01:39.733Z,1010.49
2023-01-01T10:02:39.523Z,1010.57
2023-01-01T10:03:39.548Z,1010.53
2023-01-01T10:04:39.500Z,1010.54
2023-01-01T10:05:39.473Z,1010.50
2023-01-01T10:06:39.468Z,1010.44
2023-01-01T10:07:39.434Z,1010.49
2023-01-01T10:08:39.443Z,1010.46
2023-01-01T10:09:39.434Z,1010.39
2023-01-01T10:10:39.397Z,1010.43
2023-01-01T10:11:39.392Z,1010.43
2023-01-01T10:12:39.365Z,1010.40
2023-01-01T10:13:39.365Z,1010.38
2023-01-01T10:14:39.420Z,1010.42
2023-01-01T10:15:39.337Z,1010.43
2023-01-01T10:16:39.382Z,1010.37
2023-01-01T10:17:39.361Z,1010.37
2023-01-01T10:18:39.328Z,1010.42
2023-01-01T10:19:39.391Z,1010.33
2023-01-01T10:20:39.290Z,1010.38
2023-01-01T10:21:44.986Z,1010.32
2023-01-01T10:22:40.260Z,1010.35
2023-01-01T10:23:39.258Z,1010.31
2023-01-01T10:24:39.292Z,1010.41
2023-01-01T10:25:39.232Z,1010.39
2023-01-01T10:26:39.219Z,1010.38
2023-01-01T10:27:39.228Z,1010.39
2023-01-01T10:28:39.199Z,1010.46
2023-01-01T10:29:39.249Z,1010.50
2023-01-01T10:30:39.181Z,1010.51
2023-01-01T10:31:39.211Z,1010.46
2023-01-01T10:32:39.177Z,1010.57
2023-01-01T10:33:39.140Z,1010.57
2023-01-01T10:34:39.192Z,1010.65
2023-01-01T10:35:39.130Z,1010.51
2023-01-01T10:36:39.086Z,1010.56
2023-01-01T10:37:39.096Z,1010.58
2023-01-01T10:38:39.091Z,1010.64
2023-01-01T10:39:39.093Z,1010.53
2023-01-01T10:40:39.051Z,1010.57
2023-01-01T10:41:39.060Z,1010.56
2023-01-01T10:42:39.046Z,1010.59
2023-01-01T10:43:39.011Z,1010.58
2023-01-01T10:44:39.038Z,1010.55
2023-01-01T10:45:39.072Z,1010.53
2023-01-01T10:46:39.020Z,1010.52
2023-01-01T10:47:39.022Z,1010.48
2023-01-01T10:48:38.998Z,1010.45
2023-01-01T10:49:39.036Z,1010.47
2023-01-01T10:50:38.942Z,1010.50
2023-01-01T10:51:38.937Z,1010.52
2023-01-01T10:52:38.917Z,1010.51
2023-01-01T10:53:38.936Z,1010.49
2023-01-01T10:54:38.913Z,1010.51
2023-01-01T10:55:38.946Z,1010.54
2023-01-01T10:56:38.885Z,1010.53
2023-01-01T10:57:38.888Z,1010.51
2023-01-01T10:58:38.849Z,1010.53
2023-01-01T10:59:38.894Z,1010.55
2023-01-01T11:00:38.860Z,1010.49
2023-01-01T11:01:38.885Z,1010.49
2023-01-01T11:02:38.888Z,1010.47
2023-01-01T11:03:38.810Z,1010.45
2023-01-01T11:04:38.783Z,1010.50
2023-01-01T11:05:38.808Z,1010.49
2023-01-01T11:06:38.779Z,1010.53
2023-01-01T11:07:38.777Z,1010.50
2023-01-01T11:08:38.760Z,1010.64
2023-01-01T11:09:38.730Z,1010.55
2023-01-01T11:10:38.734Z,1010.61
2023-01-01T11:11:38.703Z,1010.58
2023-01-01T11:13:39.680Z,1010.55
2023-01-01T11:14:38.663Z,1010.52
2023-01-01T11:15:38.692Z,1010.57
2023-01-01T11:16:38.705Z,1010.59
2023-01-01T11:17:38.631Z,1010.56
2023-01-01T11:18:38.622Z,1010.60
2023-01-01T11:19:38.616Z,1010.52
2023-01-01T11:20:38.650Z,1010.58
2023-01-01T11:21:38.599Z,1010.56
2023-01-01T11:22:38.579Z,1010.58
2023-01-01T11:23:38.567Z,1010.50
2023-01-01T11:24:38.550Z,1010.48
2023-01-01T11:25:38.587Z,1010.47
2023-01-01T11:26:38.541Z,1010.44
2023-01-01T11:27:38.531Z,1010.40
2023-01-01T11:28:38.522Z,1010.44
2023-01-01T11:29:38.514Z,1010.42
2023-01-01T11:30:38.549Z,1010.36
2023-01-01T11:31:38.493Z,1010.47
2023-01-01T11:32:38.461Z,1010.52
2023-01-01T11:33:38.466Z,1010.51
2023-01-01T11:34:38.465Z,1010.46
2023-01-01T11:35:38.476Z,1010.45
2023-01-01T11:36:38.484Z,1010.40
2023-01-01T11:37:38.408Z,1010.44
2023-01-01T11:38:38.423Z,1010.48
2023-01-01T11:39:38.395Z,1010.47
2023-01-01T11:40:38.439Z,1010.48
2023-01-01T11:41:38.355Z,1010.43
2023-01-01T11:42:38.346Z,1010.49
2023-01-01T11:43:38.328Z,1010.47
2023-01-01T11:44:38.341Z,1010.48
2023-01-01T11:45:38.347Z,1010.47
2023-01-01T11:46:38.412Z,1010.40
2023-01-01T11:47:38.329Z,1010.40
2023-01-01T11:48:38.300Z,1010.33
2023-01-01T11:49:38.264Z,1010.34
2023-01-01T11:50:38.312Z,1010.28
2023-01-01T11:51:38.262Z,1010.30
2023-01-01T11:52:38.242Z,1010.21
2023-01-01T11:53:38.225Z,1010.34
2023-01-01T11:54:38.219Z,1010.27
2023-01-01T11:55:38.256Z,1010.29
2023-01-01T11:56:38.219Z,1010.36
2023-01-01T11:57:38.188Z,1010.32
2023-01-01T11:58:38.161Z,1010.38
2023-01-01T11:59:38.169Z,1010.38
2023-01-01T12:00:38.195Z,1010.43
2023-01-01T12:01:38.192Z,1010.41
2023-01-01T12:02:38.186Z,1010.36
2023-01-01T12:03:38.157Z,1010.31
2023-01-01T12:04:38.113Z,1010.32
2023-01-01T12:05:38.135Z,1010.35
2023-01-01T12:06:38.113Z,1010.38
2023-01-01T12:07:38.086Z,1010.35
2023-01-01T12:08:38.063Z,1010.39